Time;durP1;ratioP1;P1;durP2;ratioP2;P2;SDS_P1;SDS_P2;PMS_P1;PMS_P2;Temp;Humidity;BMP_temperature;BMP_pressure;BME280_temperature;BME280_humidity;BME280_pressure;Samples;Min_cycle;Max_cycle;Signal;HPM_P1;HPM_P2
2022/03/21 00:01:51;;;;;;;29.33;17.23;;;9.90;99.90;;;;;;5021814;28;20025;-82
2022/03/21 00:04:17;;;;;;;29.40;16.58;;;9.50;99.90;;;;;;5018535;28;20039;-83
2022/03/21 00:06:43;;;;;;;27.80;16.75;;;9.50;99.90;;;;;;5017890;28;20021;-83
2022/03/21 00:09:09;;;;;;;28.42;16.50;;;9.90;99.90;;;;;;5017045;28;20025;-84
2022/03/21 00:11:35;;;;;;;30.45;16.90;;;9.50;99.90;;;;;;5032071;28;20113;-84
2022/03/21 00:14:01;;;;;;;26.23;15.98;;;9.50;99.90;;;;;;5011858;28;20458;-82
2022/03/21 00:16:27;;;;;;;27.88;16.50;;;9.50;99.90;;;;;;5014435;28;20031;-84
2022/03/21 00:18:53;;;;;;;29.73;16.50;;;9.50;99.90;;;;;;5018599;28;20018;-85
2022/03/21 00:21:19;;;;;;;27.67;16.50;;;9.50;99.90;;;;;;5013912;28;20029;-84
2022/03/21 00:23:46;;;;;;;28.17;15.88;;;10.30;99.90;;;;;;5015369;28;20026;-84
2022/03/21 00:26:13;;;;;;;26.35;17.88;;;9.60;99.90;;;;;;5015047;28;20025;-83
2022/03/21 00:28:38;;;;;;;27.38;16.23;;;9.60;99.90;;;;;;5012709;28;20048;-84
2022/03/21 00:31:04;;;;;;;24.30;15.25;;;9.60;99.90;;;;;;5017271;28;20029;-84
2022/03/21 00:33:30;;;;;;;28.73;16.80;;;9.50;99.90;;;;;;5028498;28;20104;-83
2022/03/21 00:35:58;;;;;;;25.23;16.15;;;9.70;99.90;;;;;;5019909;28;20505;-85
2022/03/21 00:38:24;;;;;;;25.75;16.90;;;9.60;99.90;;;;;;5011953;28;20037;-82
2022/03/21 00:40:50;;;;;;;30.38;17.17;;;9.50;99.90;;;;;;5012785;28;20029;-85
2022/03/21 00:43:23;;;;;;;26.40;16.45;;;9.50;99.90;;;;;;5013311;28;20030;-84
2022/03/21 00:45:54;;;;;;;27.45;16.83;;;9.60;99.90;;;;;;5012902;28;20021;-82
2022/03/21 00:48:21;;;;;;;25.45;15.95;;;9.70;99.90;;;;;;5012255;28;20046;-83
2022/03/21 00:50:47;;;;;;;27.20;16.13;;;9.50;99.90;;;;;;5012971;28;20022;-86
2022/03/21 00:53:16;;;;;;;26.73;16.23;;;9.70;99.90;;;;;;5013210;28;20064;-83
2022/03/21 00:55:41;;;;;;;24.60;15.38;;;9.60;99.90;;;;;;5014821;28;20506;-81
2022/03/21 00:58:07;;;;;;;26.60;15.43;;;9.60;99.90;;;;;;5016912;28;20037;-82
2022/03/21 01:00:33;;;;;;;26.20;15.52;;;9.60;99.90;;;;;;5045697;28;20859;-84
2022/03/21 01:03:00;;;;;;;24.95;15.23;;;9.90;99.90;;;;;;5015557;28;20029;-84
2022/03/21 01:05:26;;;;;;;28.35;15.52;;;10.60;99.90;;;;;;5028535;28;20386;-84
2022/03/21 01:07:52;;;;;;;29.83;16.00;;;9.70;99.90;;;;;;5016470;28;20046;-84
2022/03/21 01:10:21;;;;;;;28.00;16.23;;;9.70;99.90;;;;;;5016647;28;20029;-81
2022/03/21 01:12:47;;;;;;;30.55;16.95;;;9.70;99.90;;;;;;5026684;28;20098;-84
2022/03/21 01:15:15;;;;;;;28.33;16.00;;;9.70;99.90;;;;;;5012984;28;20112;-83
2022/03/21 01:17:42;;;;;;;30.13;16.45;;;9.70;99.90;;;;;;5013710;28;20034;-83
2022/03/21 01:20:09;;;;;;;25.55;14.60;;;9.70;99.90;;;;;;5014776;28;20029;-84
2022/03/21 01:22:35;;;;;;;26.95;15.18;;;9.70;99.90;;;;;;5012750;28;20486;-83
2022/03/21 01:25:01;;;;;;;27.70;16.35;;;9.70;99.90;;;;;;5029800;28;20030;-83
2022/03/21 01:27:27;;;;;;;29.80;15.38;;;9.80;99.90;;;;;;5012101;28;20521;-83
2022/03/21 01:29:52;;;;;;;26.50;15.13;;;9.90;99.90;;;;;;5012676;28;20030;-83
2022/03/21 01:32:18;;;;;;;28.88;15.38;;;9.70;99.90;;;;;;5010922;28;20057;-85
2022/03/21 01:34:44;;;;;;;28.90;13.70;;;9.80;99.90;;;;;;5015830;28;20612;-86
2022/03/21 01:37:10;;;;;;;26.67;15.05;;;9.80;99.90;;;;;;5032885;28;20091;-85
2022/03/21 01:39:35;;;;;;;24.60;15.00;;;9.80;99.90;;;;;;5009048;28;20026;-83
2022/03/21 01:42:01;;;;;;;27.15;15.55;;;9.80;99.90;;;;;;5009681;28;20033;-84
2022/03/21 01:44:27;;;;;;;26.40;15.52;;;9.80;99.90;;;;;;5014145;28;20450;-84
2022/03/21 01:46:52;;;;;;;25.35;15.35;;;9.70;99.90;;;;;;5028015;28;20053;-81
2022/03/21 01:49:18;;;;;;;28.60;17.02;;;9.70;99.90;;;;;;5011473;28;20041;-84
2022/03/21 01:51:44;;;;;;;31.50;18.33;;;9.70;99.90;;;;;;5011647;28;20447;-82
2022/03/21 01:56:57;;;;;;;32.05;17.48;;;9.80;99.90;;;;;;5031773;28;20048;-84
2022/03/21 01:59:24;;;;;;;26.77;17.25;;;9.80;99.90;;;;;;5012732;28;20029;-85
2022/03/21 02:01:50;;;;;;;29.75;17.73;;;9.60;99.90;;;;;;5016135;28;20022;-82
2022/03/21 02:04:16;;;;;;;31.20;17.38;;;9.60;99.90;;;;;;5012649;28;20030;-85
2022/03/21 02:06:43;;;;;;;28.83;16.80;;;9.50;99.90;;;;;;5011344;28;20112;-84
2022/03/21 02:09:09;;;;;;;26.92;15.98;;;9.40;99.90;;;;;;5009469;28;20064;-86
2022/03/21 02:11:36;;;;;;;25.88;14.95;;;9.60;99.90;;;;;;5017994;28;20029;-82
2022/03/21 02:14:03;;;;;;;28.80;15.48;;;9.50;99.90;;;;;;5015312;28;20112;-85
2022/03/21 02:16:31;;;;;;;21.75;14.43;;;9.50;99.90;;;;;;5028683;28;20036;-84
2022/03/21 02:19:30;;;;;;;23.77;15.25;;;9.50;99.90;;;;;;5015026;28;20032;-84
2022/03/21 02:22:21;;;;;;;25.25;13.82;;;9.40;99.90;;;;;;4998552;28;20478;-84
2022/03/21 02:24:52;;;;;;;23.67;13.63;;;9.40;99.90;;;;;;5011400;28;20021;-82
2022/03/21 02:27:18;;;;;;;22.73;13.45;;;9.40;99.90;;;;;;5017846;28;20041;-86
2022/03/21 02:29:47;;;;;;;25.38;14.18;;;9.50;99.90;;;;;;5016628;28;20029;-86
2022/03/21 02:32:13;;;;;;;22.65;13.63;;;9.60;99.90;;;;;;5016273;28;20068;-85
2022/03/21 02:34:39;;;;;;;23.48;13.73;;;9.40;99.90;;;;;;5013200;28;20037;-84
2022/03/21 02:37:08;;;;;;;22.20;13.45;;;9.50;99.90;;;;;;5028108;28;20025;-83
2022/03/21 02:39:36;;;;;;;23.13;13.75;;;9.50;99.90;;;;;;5021051;28;20161;-83
2022/03/21 02:42:03;;;;;;;26.58;13.88;;;9.40;99.90;;;;;;5041391;28;20041;-84
2022/03/21 02:44:37;;;;;;;21.45;13.38;;;9.40;99.90;;;;;;5038949;28;20013;-85
2022/03/21 02:47:04;;;;;;;26.52;15.60;;;9.40;99.90;;;;;;5023449;28;20037;-85
2022/03/21 02:49:37;;;;;;;24.63;14.65;;;9.40;99.90;;;;;;5175923;23;20050;-79
2022/03/21 02:52:05;;;;;;;24.63;14.52;;;9.40;99.90;;;;;;5021823;28;20036;-80
2022/03/21 02:54:34;;;;;;;26.08;13.48;;;9.30;99.90;;;;;;5013214;28;20030;-80
2022/03/21 02:57:02;;;;;;;25.75;13.40;;;9.30;99.90;;;;;;5037103;23;20148;-80
2022/03/21 02:59:47;;;;;;;20.02;13.40;;;9.30;99.90;;;;;;5019062;28;20057;-78
2022/03/21 03:02:16;;;;;;;24.05;14.15;;;9.30;99.90;;;;;;5028233;28;20864;-80
2022/03/21 03:04:44;;;;;;;24.98;13.80;;;9.30;99.90;;;;;;5007715;28;20063;-80
2022/03/21 03:07:12;;;;;;;24.17;14.27;;;9.20;99.90;;;;;;5044374;28;20037;-80
2022/03/21 03:09:39;;;;;;;28.05;14.77;;;9.10;99.90;;;;;;5052978;28;20400;-80
2022/03/21 03:12:06;;;;;;;24.38;14.30;;;9.50;99.90;;;;;;5045941;28;20052;-79
2022/03/21 03:14:33;;;;;;;23.13;14.05;;;9.10;99.90;;;;;;5041497;28;20033;-80
2022/03/21 03:17:01;;;;;;;28.20;15.02;;;9.10;99.90;;;;;;5022729;28;20049;-80
2022/03/21 03:19:28;;;;;;;25.88;15.00;;;9.10;99.90;;;;;;5036460;28;20033;-80
2022/03/21 03:21:56;;;;;;;24.83;13.85;;;9.20;99.90;;;;;;5041430;28;20043;-80
2022/03/21 03:24:25;;;;;;;19.58;11.90;;;9.00;99.90;;;;;;5043516;28;20037;-80
2022/03/21 03:26:52;;;;;;;19.27;12.82;;;9.10;99.90;;;;;;5044997;28;20025;-80
2022/03/21 03:29:19;;;;;;;25.55;13.27;;;9.00;99.90;;;;;;5048406;28;20040;-80
2022/03/21 03:31:47;;;;;;;21.95;12.98;;;8.90;99.90;;;;;;5044243;28;20084;-80
2022/03/21 03:34:14;;;;;;;23.85;12.80;;;8.80;99.90;;;;;;5047729;28;20033;-79
2022/03/21 03:36:42;;;;;;;21.58;13.20;;;8.70;99.90;;;;;;5043235;28;20034;-79
2022/03/21 03:39:25;;;;;;;22.77;12.75;;;8.70;99.90;;;;;;5080258;22;20046;-80
2022/03/21 03:41:52;;;;;;;20.92;12.60;;;9.50;99.90;;;;;;5037134;28;20021;-79
2022/03/21 03:47:42;;;;;;;20.17;12.73;;;9.20;99.90;;;;;;5044468;23;20068;-79
2022/03/21 03:50:09;;;;;;;21.15;13.15;;;9.30;99.90;;;;;;5041119;28;20025;-80
2022/03/21 03:52:35;;;;;;;18.63;12.00;;;8.60;99.90;;;;;;5018104;28;20108;-79
2022/03/21 03:55:08;;;;;;;23.35;12.52;;;8.50;99.90;;;;;;5020832;28;20033;-79
2022/03/21 03:57:36;;;;;;;17.90;12.18;;;8.50;99.90;;;;;;5021486;28;20037;-79
2022/03/21 04:00:04;;;;;;;20.15;12.73;;;8.40;99.90;;;;;;5005903;28;20029;-79
2022/03/21 04:03:44;;;;;;;19.67;10.60;;;8.40;99.90;;;;;;5017023;28;20033;-79
2022/03/21 04:05:18;;;;;;;23.02;12.90;;;8.40;99.90;;;;;;5033080;28;20343;-79
2022/03/21 04:07:46;;;;;;;22.98;13.02;;;8.40;99.90;;;;;;5019638;28;20029;-79
2022/03/21 04:10:14;;;;;;;21.48;12.35;;;8.30;99.90;;;;;;5021430;28;20033;-80
2022/03/21 04:12:44;;;;;;;20.00;11.55;;;8.90;99.90;;;;;;5027419;28;20556;-80
2022/03/21 04:15:11;;;;;;;20.33;12.00;;;8.30;99.90;;;;;;5034650;28;20018;-79
2022/03/21 04:17:37;;;;;;;22.02;12.55;;;8.30;99.90;;;;;;5030877;28;20033;-80
2022/03/21 04:20:04;;;;;;;21.60;11.98;;;8.30;99.90;;;;;;5031710;28;20353;-80
2022/03/21 04:22:34;;;;;;;20.83;11.93;;;8.20;99.90;;;;;;5056671;28;20040;-79
2022/03/21 04:25:03;;;;;;;19.25;12.32;;;8.20;99.90;;;;;;5044619;28;20507;-79
2022/03/21 04:27:32;;;;;;;19.60;12.07;;;8.10;99.90;;;;;;5038837;28;20033;-79
2022/03/21 04:30:02;;;;;;;22.52;13.13;;;8.00;99.90;;;;;;5003799;28;20045;-80
2022/03/21 04:32:36;;;;;;;20.80;11.95;;;8.10;99.90;;;;;;5035048;28;20033;-79
2022/03/21 04:35:03;;;;;;;22.05;13.05;;;7.90;99.90;;;;;;5021043;28;20048;-78
2022/03/21 04:37:32;;;;;;;20.80;12.20;;;7.90;99.90;;;;;;5038247;28;20029;-79
2022/03/21 04:39:58;;;;;;;25.35;12.50;;;8.00;99.90;;;;;;5034069;28;20028;-79
2022/03/21 04:42:26;;;;;;;22.65;13.48;;;7.90;99.90;;;;;;5029505;28;20049;-79
2022/03/21 04:44:53;;;;;;;24.02;13.30;;;7.80;99.90;;;;;;5018836;28;20032;-79
2022/03/21 04:47:21;;;;;;;26.65;14.70;;;7.80;99.90;;;;;;5021521;28;20064;-80
2022/03/21 04:49:49;;;;;;;24.85;13.15;;;7.80;99.90;;;;;;5020795;28;20026;-79
2022/03/21 04:52:16;;;;;;;25.05;14.40;;;7.80;99.90;;;;;;5019274;28;20029;-80
2022/03/21 04:54:42;;;;;;;28.38;15.07;;;7.70;99.90;;;;;;5037354;28;20034;-80
2022/03/21 04:57:11;;;;;;;26.67;13.43;;;7.70;99.90;;;;;;5005713;28;20037;-80
2022/03/21 04:59:38;;;;;;;22.10;12.95;;;7.60;99.90;;;;;;5041124;28;20052;-80
2022/03/21 05:02:06;;;;;;;25.70;14.10;;;7.70;99.90;;;;;;5039012;28;20044;-80
2022/03/21 05:04:34;;;;;;;25.42;14.38;;;8.00;99.90;;;;;;5005094;28;20045;-80
2022/03/21 05:07:01;;;;;;;24.50;12.82;;;7.60;99.90;;;;;;5024829;28;20060;-80
2022/03/21 05:09:28;;;;;;;24.17;12.68;;;7.60;99.90;;;;;;5011927;28;20029;-80
2022/03/21 05:11:54;;;;;;;22.15;12.35;;;7.60;99.90;;;;;;5028346;28;20033;-80
2022/03/21 05:14:25;;;;;;;28.05;15.20;;;7.60;99.90;;;;;;5049450;28;20089;-79
2022/03/21 05:16:53;;;;;;;25.20;15.10;;;7.50;99.90;;;;;;5026735;28;20072;-79
2022/03/21 05:19:18;;;;;;;28.13;15.82;;;7.60;99.90;;;;;;5033078;28;20289;-79
2022/03/21 05:21:47;;;;;;;28.67;16.13;;;7.40;99.90;;;;;;5036033;28;20061;-80
2022/03/21 05:32:30;;;;;;;24.40;14.10;;;7.40;99.90;;;;;;5030509;28;20652;-80
2022/03/21 05:37:40;;;;;;;27.98;15.68;;;7.30;99.90;;;;;;5036930;28;20095;-80
2022/03/21 05:42:55;;;;;;;31.10;15.45;;;7.30;99.90;;;;;;5036889;28;20048;-80
2022/03/21 05:45:23;;;;;;;22.95;14.27;;;7.30;99.90;;;;;;5015104;28;20053;-80
2022/03/21 05:50:39;;;;;;;23.90;12.77;;;7.30;99.90;;;;;;5033188;28;20121;-81
2022/03/21 05:53:08;;;;;;;22.63;12.07;;;7.30;99.90;;;;;;5022908;28;20021;-80
2022/03/21 05:55:35;;;;;;;22.70;11.80;;;7.40;99.90;;;;;;5034724;28;20108;-80
2022/03/21 05:58:02;;;;;;;19.77;12.35;;;7.40;99.90;;;;;;5030201;28;20481;-80
2022/03/21 06:00:30;;;;;;;28.77;14.00;;;7.40;99.90;;;;;;5020917;28;20021;-81
2022/03/21 06:02:57;;;;;;;24.13;13.52;;;7.30;99.90;;;;;;5021273;28;20025;-81
2022/03/21 06:05:25;;;;;;;21.85;12.95;;;7.30;99.90;;;;;;5020419;28;20477;-80
2022/03/21 06:07:52;;;;;;;20.83;12.77;;;7.30;99.90;;;;;;5018431;28;20481;-80
2022/03/21 06:10:18;;;;;;;23.17;13.63;;;7.40;99.90;;;;;;5040408;28;20156;-81
2022/03/21 06:12:49;;;;;;;26.40;12.88;;;7.30;99.90;;;;;;5041180;28;20474;-81
2022/03/21 06:15:16;;;;;;;20.45;12.57;;;7.40;99.90;;;;;;5027523;28;20101;-80
2022/03/21 06:17:44;;;;;;;25.20;14.43;;;7.40;99.90;;;;;;5024718;28;20033;-81
2022/03/21 06:20:17;;;;;;;24.58;12.65;;;7.40;99.90;;;;;;5021641;28;20102;-80
2022/03/21 06:22:44;;;;;;;26.85;14.32;;;7.40;99.90;;;;;;5036142;28;20089;-80
2022/03/21 06:25:13;;;;;;;25.00;15.10;;;7.40;99.90;;;;;;5025686;28;20033;-80
2022/03/21 06:39:33;;;;;;;34.83;17.08;;;7.30;99.90;;;;;;5051339;28;20057;-80
2022/03/21 06:41:58;;;;;;;32.20;16.98;;;7.50;99.90;;;;;;5061955;28;20017;-81
2022/03/21 06:44:30;;;;;;;33.95;17.52;;;;;;;;;;5069753;28;20033;-80
2022/03/21 06:46:59;;;;;;;30.90;16.92;;;7.30;99.90;;;;;;5059869;28;20620;-81
2022/03/21 06:49:29;;;;;;;31.40;16.35;;;;;;;;;;5052502;28;20044;-79
2022/03/21 06:52:18;;;;;;;29.35;16.95;;;7.40;99.90;;;;;;5057344;28;20031;-80
2022/03/21 06:55:06;;;;;;;28.33;15.32;;;7.40;99.90;;;;;;5060418;28;20037;-81
2022/03/21 06:57:33;;;;;;;25.75;14.45;;;;;;;;;;5055088;28;20045;-80
2022/03/21 07:00:01;;;;;;;24.13;15.00;;;;;;;;;;5044948;28;20044;-79
2022/03/21 07:02:33;;;;;;;23.98;13.60;;;7.80;99.90;;;;;;5061464;28;20029;-81
2022/03/21 07:05:03;;;;;;;29.42;14.90;;;7.90;99.90;;;;;;5045190;28;20025;-81
2022/03/21 07:07:30;;;;;;;25.38;14.85;;;7.80;99.90;;;;;;5059751;28;20033;-81
2022/03/21 07:09:59;;;;;;;29.02;16.02;;;8.00;99.90;;;;;;5050417;28;20037;-77
2022/03/21 07:12:26;;;;;;;25.90;14.32;;;6.70;99.90;;;;;;5037700;28;20036;-79
2022/03/21 07:14:52;;;;;;;28.10;15.85;;;9.60;99.90;;;;;;5041075;28;20045;-79
2022/03/21 07:17:20;;;;;;;28.83;15.73;;;8.10;99.90;;;;;;5062507;28;20061;-79
2022/03/21 07:19:50;;;;;;;27.58;16.13;;;8.30;99.90;;;;;;5056207;28;20024;-79
2022/03/21 07:22:17;;;;;;;29.08;17.15;;;;;;;;;;5060678;28;20033;-79
2022/03/21 07:24:44;;;;;;;35.60;18.10;;;8.50;99.90;;;;;;5058052;28;20060;-80
2022/03/21 07:27:14;;;;;;;29.00;17.48;;;9.90;99.90;;;;;;5057283;28;20028;-81
2022/03/21 07:29:42;;;;;;;35.93;16.47;;;8.90;99.90;;;;;;5046377;28;20032;-80
2022/03/21 07:39:07;;;;;;;33.88;16.05;;;9.00;99.90;;;;;;5047172;28;20044;-81
2022/03/21 07:42:00;;;;;;;26.58;15.15;;;9.10;99.90;;;;;;5044866;28;20136;-81
2022/03/21 07:47:20;;;;;;;24.38;14.65;;;9.70;99.90;;;;;;5041980;28;20029;-81
2022/03/21 07:49:48;;;;;;;28.98;14.93;;;9.30;99.90;;;;;;5037071;28;20482;-80
2022/03/21 07:52:14;;;;;;;25.77;15.63;;;9.80;99.90;;;;;;5053375;28;20116;-80
2022/03/21 07:54:42;;;;;;;26.23;14.65;;;8.40;99.90;;;;;;5057623;28;20029;-80
2022/03/21 07:57:11;;;;;;;28.15;15.30;;;9.70;99.90;;;;;;5042919;28;20038;-80
2022/03/21 07:59:40;;;;;;;24.75;15.25;;;10.10;99.90;;;;;;5057523;28;20021;-81
2022/03/21 08:02:12;;;;;;;23.58;14.52;;;8.30;99.90;;;;;;5076233;28;20032;-81
2022/03/21 08:05:04;;;;;;;22.02;13.45;;;10.10;99.90;;;;;;5061737;28;20021;-81
2022/03/21 08:07:45;;;;;;;22.48;12.38;;;10.40;99.90;;;;;;5040997;28;20095;-81
2022/03/21 08:10:11;;;;;;;20.10;12.98;;;10.60;99.90;;;;;;5047024;28;20032;-81
2022/03/21 08:12:42;;;;;;;27.13;13.63;;;10.60;99.90;;;;;;5062096;28;20021;-81
2022/03/21 08:15:11;;;;;;;;;;;10.60;99.90;;;;;;5063319;28;20055;-80
2022/03/21 08:18:12;;;;;;;23.38;12.18;;;10.80;99.90;;;;;;5062566;28;19967;-80
2022/03/21 08:20:58;;;;;;;21.52;11.40;;;9.40;99.90;;;;;;5025764;28;20037;-81
2022/03/21 08:24:00;;;;;;;23.33;12.18;;;10.90;99.90;;;;;;5071853;28;20066;-80
2022/03/21 08:27:15;;;;;;;20.00;11.65;;;11.80;99.90;;;;;;5058598;28;20048;-80
2022/03/21 08:30:35;;;;;;;27.45;12.60;;;12.70;99.90;;;;;;5070021;28;20085;-80
2022/03/21 08:33:38;;;;;;;22.20;12.00;;;11.30;99.90;;;;;;5044813;28;20068;-78
2022/03/21 08:36:12;;;;;;;21.52;11.52;;;12.20;99.90;;;;;;5067929;28;20033;-80
2022/03/21 08:42:58;;;;;;;23.50;11.23;;;12.30;99.60;;;;;;5061982;28;20027;-80
2022/03/21 08:45:37;;;;;;;21.88;10.40;;;12.50;99.10;;;;;;5064230;28;20084;-81
2022/03/21 08:48:05;;;;;;;18.70;8.95;;;12.80;97.20;;;;;;5073376;23;20513;-87
2022/03/21 08:50:31;;;;;;;15.95;8.32;;;14.10;98.30;;;;;;5036651;28;20111;-90
2022/03/21 08:52:58;;;;;;;17.35;8.73;;;;;;;;;;5031835;28;20029;-87
2022/03/21 08:55:24;;;;;;;15.50;8.07;;;13.10;94.30;;;;;;5024534;28;20033;-87
2022/03/21 08:57:51;;;;;;;14.45;9.27;;;13.20;94.40;;;;;;5035724;28;20403;-84
2022/03/21 09:00:17;;;;;;;11.68;7.50;;;13.50;94.30;;;;;;5018863;28;20056;-89
2022/03/21 09:02:46;;;;;;;12.77;7.57;;;13.50;92.10;;;;;;5015098;28;20033;-87
2022/03/21 09:05:13;;;;;;;12.63;6.45;;;;;;;;;;5013851;28;20037;-87
2022/03/21 09:07:40;;;;;;;11.50;6.38;;;13.90;90.00;;;;;;5030179;28;20511;-85
2022/03/21 09:10:07;;;;;;;11.75;6.65;;;14.00;88.60;;;;;;5008012;28;20184;-87
2022/03/21 09:12:35;;;;;;;11.75;6.82;;;14.10;88.10;;;;;;5014249;28;20034;-88
2022/03/21 09:15:00;;;;;;;13.35;7.25;;;12.90;84.70;;;;;;5012210;28;20030;-85
2022/03/21 09:17:28;;;;;;;10.40;6.75;;;14.20;87.90;;;;;;5008160;28;20518;-88
2022/03/21 09:19:53;;;;;;;11.18;6.72;;;14.30;88.20;;;;;;5008068;28;20018;-84
2022/03/21 09:22:20;;;;;;;13.15;6.78;;;;;;;;;;5011487;28;20036;-88
2022/03/21 09:24:45;;;;;;;15.52;6.88;;;14.70;83.20;;;;;;5010366;28;20086;-86
2022/03/21 09:27:11;;;;;;;12.30;6.95;;;14.70;83.80;;;;;;5011331;28;20061;-87
2022/03/21 09:29:39;;;;;;;12.50;7.03;;;13.40;81.30;;;;;;5010094;28;20041;-86
2022/03/21 09:32:06;;;;;;;11.05;6.40;;;14.70;81.80;;;;;;5010739;28;20486;-87
2022/03/21 09:34:32;;;;;;;13.02;7.30;;;14.70;80.70;;;;;;5015901;28;20030;-85
2022/03/21 09:36:58;;;;;;;12.20;6.47;;;14.60;81.90;;;;;;5010118;28;20037;-85
2022/03/21 09:39:24;;;;;;;12.57;6.70;;;14.90;80.60;;;;;;5017366;28;20026;-85
2022/03/21 09:41:50;;;;;;;13.27;6.70;;;14.90;80.90;;;;;;5018701;28;20372;-87
2022/03/21 09:44:16;;;;;;;10.85;6.50;;;15.30;80.20;;;;;;5020020;28;20034;-87
2022/03/21 09:46:44;;;;;;;12.75;6.60;;;15.10;78.30;;;;;;5022125;28;20026;-86
2022/03/21 09:49:12;;;;;;;13.68;7.18;;;16.10;79.80;;;;;;5022266;28;20030;-87
2022/03/21 09:51:41;;;;;;;12.55;6.78;;;15.20;80.00;;;;;;5021877;28;20086;-88
2022/03/21 09:54:08;;;;;;;9.87;6.07;;;15.40;78.80;;;;;;5006997;28;20041;-87
2022/03/21 09:56:34;;;;;;;10.85;6.20;;;15.50;77.60;;;;;;5005156;28;20488;-88
2022/03/21 09:58:59;;;;;;;12.85;6.22;;;15.50;76.60;;;;;;5003575;28;20029;-87
2022/03/21 10:01:29;;;;;;;7.97;5.72;;;15.80;75.80;;;;;;5001730;28;20082;-88
2022/03/21 10:03:55;;;;;;;9.75;5.90;;;15.90;76.40;;;;;;5006301;28;20053;-89
2022/03/21 10:06:35;;;;;;;13.30;7.68;;;16.00;76.70;;;;;;5014839;28;20034;-87
2022/03/21 10:09:03;;;;;;;10.43;6.38;;;16.10;75.10;;;;;;5015719;28;20026;-89
2022/03/21 10:11:29;;;;;;;9.73;5.47;;;16.20;76.30;;;;;;5006618;28;20467;-89
2022/03/21 10:13:55;;;;;;;9.88;5.38;;;;;;;;;;5013246;28;20064;-89
2022/03/21 10:16:21;;;;;;;12.77;5.50;;;16.30;70.40;;;;;;5007354;28;20065;-89
2022/03/21 10:18:52;;;;;;;9.02;5.80;;;16.30;70.60;;;;;;5007699;28;20030;-89
2022/03/21 10:21:19;;;;;;;8.80;5.75;;;16.40;70.30;;;;;;5013431;28;20054;-85
2022/03/21 10:24:06;;;;;;;10.27;5.13;;;16.30;67.40;;;;;;5020326;28;20479;-89
2022/03/21 10:26:49;;;;;;;7.32;5.10;;;16.30;67.80;;;;;;5020414;28;20042;-88
2022/03/21 10:29:15;;;;;;;9.35;5.35;;;16.20;70.00;;;;;;4997330;28;20037;-88
2022/03/21 10:31:47;;;;;;;7.43;4.60;;;16.30;70.00;;;;;;5012165;28;20057;-85
2022/03/21 10:34:15;;;;;;;11.18;5.10;;;16.50;66.70;;;;;;5018331;28;20025;-88
2022/03/21 10:37:00;;;;;;;8.23;4.97;;;16.80;66.60;;;;;;5002945;28;20030;-89
2022/03/21 10:39:27;;;;;;;11.77;5.20;;;16.60;67.50;;;;;;5008434;28;20096;-89
2022/03/21 10:42:01;;;;;;;10.43;5.55;;;17.60;68.60;;;;;;4999696;28;20026;-89
2022/03/21 10:44:31;;;;;;;8.05;4.35;;;16.80;67.00;;;;;;5004634;28;20038;-88
2022/03/21 10:47:03;;;;;;;9.98;4.90;;;16.80;63.90;;;;;;5000042;28;20114;-89
2022/03/21 10:49:38;;;;;;;9.07;5.28;;;17.00;64.30;;;;;;5015389;28;20037;-85
2022/03/21 10:52:06;;;;;;;10.57;4.78;;;17.10;63.60;;;;;;5022848;28;20053;-89
2022/03/21 10:54:49;;;;;;;9.40;5.07;;;17.00;61.60;;;;;;5017087;28;20101;-88
2022/03/21 10:57:28;;;;;;;10.23;6.20;;;17.10;62.70;;;;;;5026880;28;20022;-87
2022/03/21 11:00:16;;;;;;;8.73;5.05;;;17.50;63.60;;;;;;5018401;28;20049;-86
2022/03/21 11:03:00;;;;;;;10.30;5.55;;;17.20;60.50;;;;;;5017050;28;20026;-86
2022/03/21 11:05:30;;;;;;;15.68;5.57;;;17.30;61.80;;;;;;5012109;28;20029;-87
2022/03/21 11:07:56;;;;;;;12.13;6.20;;;17.30;63.80;;;;;;5013374;28;20037;-87
2022/03/21 11:10:23;;;;;;;15.18;6.03;;;17.30;62.20;;;;;;5026785;28;20483;-86
2022/03/21 11:12:50;;;;;;;10.07;5.00;;;;;;;;;;5015650;28;20056;-89
2022/03/21 11:15:16;;;;;;;11.25;5.68;;;17.40;60.80;;;;;;5023451;28;20037;-89
2022/03/21 11:17:43;;;;;;;7.50;5.45;;;17.40;61.20;;;;;;5021309;28;20129;-87
2022/03/21 11:20:11;;;;;;;9.63;5.60;;;17.40;60.60;;;;;;5017339;28;20022;-90
2022/03/21 11:22:38;;;;;;;7.25;4.85;;;17.50;60.10;;;;;;5020856;28;20476;-87
2022/03/21 11:25:15;;;;;;;11.43;5.18;;;17.70;59.60;;;;;;5014297;28;20427;-89
2022/03/21 11:28:18;;;;;;;27.73;6.22;;;17.60;58.70;;;;;;5021975;28;20144;-88
2022/03/21 11:31:15;;;;;;;20.20;5.15;;;17.70;59.00;;;;;;5011796;28;20022;-87
2022/03/21 11:33:48;;;;;;;7.82;4.47;;;17.70;58.80;;;;;;5022390;28;20145;-86
2022/03/21 11:36:14;;;;;;;8.85;4.85;;;17.60;57.80;;;;;;5024153;28;20036;-87
2022/03/21 11:38:45;;;;;;;8.55;4.82;;;17.70;58.60;;;;;;5024542;28;20503;-90
2022/03/21 11:41:13;;;;;;;;;;;17.70;59.10;;;;;;5033384;28;20056;-89
2022/03/21 11:43:41;;;;;;;6.28;4.30;;;17.70;57.50;;;;;;5020711;28;19909;-88
2022/03/21 11:46:30;;;;;;;10.20;4.70;;;17.80;57.70;;;;;;5021725;28;20041;-89
2022/03/21 11:49:05;;;;;;;10.95;4.93;;;17.90;58.20;;;;;;5020207;28;20037;-88
2022/03/21 11:51:39;;;;;;;9.27;4.70;;;20.00;60.40;;;;;;5022499;28;20030;-86
2022/03/21 11:54:24;;;;;;;12.48;5.25;;;18.00;57.20;;;;;;5018380;28;20105;-89
2022/03/21 11:56:51;;;;;;;9.15;5.03;;;18.00;56.80;;;;;;5014011;28;20032;-87
2022/03/21 11:59:32;;;;;;;10.32;4.90;;;17.90;58.20;;;;;;5021794;28;20067;-88
2022/03/21 12:02:07;;;;;;;8.45;4.55;;;18.00;56.50;;;;;;5035575;28;20026;-88
2022/03/21 12:04:33;;;;;;;9.85;4.90;;;;;;;;;;5029049;28;20018;-89
2022/03/21 12:07:14;;;;;;;7.53;4.32;;;17.90;56.70;;;;;;5024157;28;20080;-89
2022/03/21 12:09:44;;;;;;;8.02;4.45;;;18.10;58.00;;;;;;5019682;28;20113;-87
2022/03/21 12:12:13;;;;;;;7.45;4.22;;;18.20;57.00;;;;;;5021607;28;20018;-88
2022/03/21 12:14:46;;;;;;;8.40;4.22;;;18.40;56.70;;;;;;5019392;28;20038;-90
2022/03/21 12:17:15;;;;;;;8.70;4.55;;;17.80;56.00;;;;;;5022816;28;20049;-89
2022/03/21 12:19:57;;;;;;;6.60;4.18;;;18.60;57.50;;;;;;5023075;28;20538;-89
2022/03/21 12:22:35;;;;;;;9.60;4.60;;;18.60;55.40;;;;;;5033613;28;20030;-87
2022/03/21 12:25:14;;;;;;;6.65;4.50;;;18.60;55.60;;;;;;5030084;28;20028;-87
2022/03/21 12:27:52;;;;;;;12.57;4.63;;;18.60;55.90;;;;;;5011869;28;20034;-88
2022/03/21 12:30:26;;;;;;;7.28;4.32;;;18.60;55.40;;;;;;5013895;28;20040;-89
2022/03/21 12:32:57;;;;;;;6.78;4.30;;;18.70;56.20;;;;;;5033050;28;20063;-88
2022/03/21 12:35:32;;;;;;;7.43;4.20;;;18.70;55.70;;;;;;5012968;28;20031;-87
2022/03/21 12:38:22;;;;;;;5.55;3.63;;;18.60;56.40;;;;;;5009541;28;20091;-87
2022/03/21 12:40:51;;;;;;;7.90;4.53;;;18.80;54.80;;;;;;5021070;28;20069;-88
2022/03/21 12:43:27;;;;;;;5.65;3.85;;;18.80;55.30;;;;;;5035579;28;20474;-88
2022/03/21 12:46:06;;;;;;;7.45;3.88;;;18.70;54.80;;;;;;5019873;28;20032;-89
2022/03/21 12:48:34;;;;;;;8.13;4.30;;;18.90;55.50;;;;;;5020526;28;20057;-85
2022/03/21 12:51:04;;;;;;;9.32;4.72;;;18.80;54.50;;;;;;5020626;28;20105;-87
2022/03/21 12:53:59;;;;;;;8.20;4.45;;;19.30;55.20;;;;;;5033614;28;20033;-88
2022/03/21 12:56:26;;;;;;;6.63;4.18;;;17.30;54.10;;;;;;5009060;28;20033;-87
2022/03/21 12:58:57;;;;;;;6.05;4.05;;;19.10;54.10;;;;;;5013375;28;20030;-89
2022/03/21 13:01:23;;;;;;;8.05;4.10;;;19.00;55.20;;;;;;5011102;28;20083;-88
2022/03/21 13:03:57;;;;;;;6.95;3.95;;;20.00;55.70;;;;;;5017703;28;20074;-90
2022/03/21 13:11:58;;;;;;;8.95;4.28;;;;;;;;;;5016984;28;20575;-87
2022/03/21 13:14:23;;;;;;;6.70;3.83;;;19.10;54.10;;;;;;5013611;28;20031;-88
2022/03/21 13:16:50;;;;;;;6.72;3.90;;;19.10;55.70;;;;;;5014535;28;20156;-86
2022/03/21 13:19:22;;;;;;;11.13;4.10;;;19.00;54.40;;;;;;5012307;28;20384;-88
2022/03/21 13:22:03;;;;;;;6.50;3.75;;;19.00;54.80;;;;;;5013441;28;20049;-89
2022/03/21 13:24:39;;;;;;;7.22;4.50;;;18.90;55.30;;;;;;5015460;28;20030;-89
2022/03/21 13:27:07;;;;;;;12.80;4.32;;;19.10;55.60;;;;;;5029563;28;20029;-88
2022/03/21 13:29:33;;;;;;;8.23;4.47;;;19.20;56.40;;;;;;5012104;28;20129;-89
2022/03/21 13:32:03;;;;;;;7.45;4.00;;;19.30;55.30;;;;;;5013458;28;20022;-86
2022/03/21 13:34:28;;;;;;;9.43;4.45;;;19.80;55.90;;;;;;5014686;28;20026;-87
2022/03/21 13:36:54;;;;;;;6.07;4.13;;;19.10;56.70;;;;;;5015026;28;20080;-88
2022/03/21 13:39:24;;;;;;;5.75;3.83;;;19.00;55.20;;;;;;5013008;28;20039;-86
2022/03/21 13:42:03;;;;;;;6.30;3.35;;;19.00;55.90;;;;;;5015730;28;20097;-89
2022/03/21 13:44:39;;;;;;;6.50;3.70;;;19.20;55.10;;;;;;5018603;28;20034;-88
2022/03/21 13:47:14;;;;;;;6.35;4.30;;;18.90;54.80;;;;;;5015694;28;20026;-88
2022/03/21 13:49:52;;;;;;;7.97;4.32;;;18.90;54.80;;;;;;5015619;28;20056;-89
2022/03/21 13:52:49;;;;;;;7.10;3.90;;;19.10;55.30;;;;;;5013760;28;20807;-86
2022/03/21 13:55:23;;;;;;;7.00;3.58;;;19.00;54.60;;;;;;5012800;28;20030;-89